Terminal Aerodrome Forecast
Issued by NWS Houston/Galveston TX

Home | Current Version | Previous Version | Text Only | Print | Product List | Glossary On
Versions: 1 2 3 4 5 6 7 8 9 10 11 12 13 14 15 16 17 18 19 20 21 22 23 24 25 26 27
000
FTUS44 KHGX 211809 AAA
TAFHOU
TAF AMD
KHOU 211809Z 2118/2218 12012KT P6SM VCSH BKN015 BKN025
      TEMPO 2118/2120 5SM SHRA
     FM212000 13012G18KT P6SM VCSH SCT025 BKN035
     FM212300 13013KT P6SM VCSH BKN025 BKN060
      TEMPO 2123/2203 4SM SHRA SCT015 BKN025
     FM220300 13010KT P6SM VCTS BKN025CB BKN045 PROB30 2203/2207
      VRB15KT 4SM TSRA BKN015CB OVC035
     FM220900 24009KT P6SM VCSH BKN015 BKN035
     FM221300 31014KT P6SM BKN015=

USA.gov is the U.S. government's official web portal to all federal, state and local government web resources and services.